sensor_id;sensor_type;location;lat;lon;timestamp;P1;durP1;ratioP1;P2;durP2;ratioP2
65558;SDS011;52203;51.998;5.140;2022-11-25T00:00:24;9.27;;;2.42;;
65558;SDS011;52203;51.998;5.140;2022-11-25T00:02:49;8.20;;;2.72;;
65558;SDS011;52203;51.998;5.140;2022-11-25T00:05:15;8.65;;;2.53;;
65558;SDS011;52203;51.998;5.140;2022-11-25T00:07:40;11.90;;;2.65;;
65558;SDS011;52203;51.998;5.140;2022-11-25T00:10:06;5.38;;;2.40;;
65558;SDS011;52203;51.998;5.140;2022-11-25T00:12:32;7.32;;;2.50;;
65558;SDS011;52203;51.998;5.140;2022-11-25T00:14:57;13.27;;;3.25;;
65558;SDS011;52203;51.998;5.140;2022-11-25T00:17:23;13.80;;;2.70;;
65558;SDS011;52203;51.998;5.140;2022-11-25T00:19:48;11.18;;;3.03;;
65558;SDS011;52203;51.998;5.140;2022-11-25T00:22:15;15.63;;;2.60;;
65558;SDS011;52203;51.998;5.140;2022-11-25T00:24:40;9.48;;;2.30;;
65558;SDS011;52203;51.998;5.140;2022-11-25T00:27:06;11.40;;;2.70;;
65558;SDS011;52203;51.998;5.140;2022-11-25T00:29:31;9.98;;;2.22;;
65558;SDS011;52203;51.998;5.140;2022-11-25T00:31:57;10.57;;;2.60;;
65558;SDS011;52203;51.998;5.140;2022-11-25T00:34:22;8.07;;;2.72;;
65558;SDS011;52203;51.998;5.140;2022-11-25T00:36:48;9.80;;;2.92;;
65558;SDS011;52203;51.998;5.140;2022-11-25T00:39:14;13.00;;;2.90;;
65558;SDS011;52203;51.998;5.140;2022-11-25T00:41:41;8.85;;;2.45;;
65558;SDS011;52203;51.998;5.140;2022-11-25T00:44:27;12.80;;;2.45;;
65558;SDS011;52203;51.998;5.140;2022-11-25T00:49:42;13.45;;;3.42;;
65558;SDS011;52203;51.998;5.140;2022-11-25T00:52:11;11.93;;;3.25;;
65558;SDS011;52203;51.998;5.140;2022-11-25T00:54:38;11.93;;;2.72;;
65558;SDS011;52203;51.998;5.140;2022-11-25T00:57:04;6.57;;;2.22;;
65558;SDS011;52203;51.998;5.140;2022-11-25T00:59:29;10.05;;;3.03;;
65558;SDS011;52203;51.998;5.140;2022-11-25T01:01:55;13.05;;;2.70;;
65558;SDS011;52203;51.998;5.140;2022-11-25T01:04:21;9.35;;;2.63;;
65558;SDS011;52203;51.998;5.140;2022-11-25T01:06:46;10.55;;;2.70;;
65558;SDS011;52203;51.998;5.140;2022-11-25T01:09:12;10.00;;;2.50;;
65558;SDS011;52203;51.998;5.140;2022-11-25T01:11:38;9.48;;;2.53;;
65558;SDS011;52203;51.998;5.140;2022-11-25T01:14:03;14.52;;;2.97;;
65558;SDS011;52203;51.998;5.140;2022-11-25T01:16:29;7.57;;;2.45;;
65558;SDS011;52203;51.998;5.140;2022-11-25T01:18:57;11.45;;;2.63;;
65558;SDS011;52203;51.998;5.140;2022-11-25T01:21:25;11.20;;;2.40;;
65558;SDS011;52203;51.998;5.140;2022-11-25T01:23:52;7.55;;;1.98;;
65558;SDS011;52203;51.998;5.140;2022-11-25T01:26:20;8.52;;;2.08;;
65558;SDS011;52203;51.998;5.140;2022-11-25T01:28:47;13.60;;;2.70;;
65558;SDS011;52203;51.998;5.140;2022-11-25T01:31:20;6.97;;;2.25;;
65558;SDS011;52203;51.998;5.140;2022-11-25T01:33:51;10.32;;;2.67;;
65558;SDS011;52203;51.998;5.140;2022-11-25T01:36:18;8.95;;;2.08;;
65558;SDS011;52203;51.998;5.140;2022-11-25T01:38:44;10.82;;;2.90;;
65558;SDS011;52203;51.998;5.140;2022-11-25T01:41:13;11.77;;;2.72;;
65558;SDS011;52203;51.998;5.140;2022-11-25T01:43:39;10.27;;;2.80;;
65558;SDS011;52203;51.998;5.140;2022-11-25T01:48:45;8.07;;;2.78;;
65558;SDS011;52203;51.998;5.140;2022-11-25T01:51:18;12.10;;;3.00;;
65558;SDS011;52203;51.998;5.140;2022-11-25T01:53:49;12.48;;;3.25;;
65558;SDS011;52203;51.998;5.140;2022-11-25T01:56:16;11.27;;;2.53;;
65558;SDS011;52203;51.998;5.140;2022-11-25T01:58:42;8.88;;;2.30;;
65558;SDS011;52203;51.998;5.140;2022-11-25T02:01:09;12.27;;;3.00;;
65558;SDS011;52203;51.998;5.140;2022-11-25T02:03:36;8.43;;;2.33;;
65558;SDS011;52203;51.998;5.140;2022-11-25T02:06:09;11.18;;;2.58;;
65558;SDS011;52203;51.998;5.140;2022-11-25T02:08:41;7.05;;;2.00;;
65558;SDS011;52203;51.998;5.140;2022-11-25T02:11:10;17.92;;;3.38;;
65558;SDS011;52203;51.998;5.140;2022-11-25T02:13:37;13.07;;;3.28;;
65558;SDS011;52203;51.998;5.140;2022-11-25T02:16:03;8.30;;;2.40;;
65558;SDS011;52203;51.998;5.140;2022-11-25T02:18:29;14.20;;;2.78;;
65558;SDS011;52203;51.998;5.140;2022-11-25T02:20:54;10.82;;;2.90;;
65558;SDS011;52203;51.998;5.140;2022-11-25T02:26:07;7.63;;;2.97;;
65558;SDS011;52203;51.998;5.140;2022-11-25T02:28:32;8.20;;;2.65;;
65558;SDS011;52203;51.998;5.140;2022-11-25T02:30:59;6.88;;;2.45;;
65558;SDS011;52203;51.998;5.140;2022-11-25T02:33:24;8.95;;;2.80;;
65558;SDS011;52203;51.998;5.140;2022-11-25T02:40:47;7.63;;;2.70;;
65558;SDS011;52203;51.998;5.140;2022-11-25T02:43:18;10.68;;;3.05;;
65558;SDS011;52203;51.998;5.140;2022-11-25T02:45:46;7.22;;;2.08;;
65558;SDS011;52203;51.998;5.140;2022-11-25T02:48:27;7.45;;;2.90;;
65558;SDS011;52203;51.998;5.140;2022-11-25T02:50:55;10.07;;;2.90;;
65558;SDS011;52203;51.998;5.140;2022-11-25T02:53:21;10.32;;;3.03;;
65558;SDS011;52203;51.998;5.140;2022-11-25T02:55:46;11.30;;;3.10;;
65558;SDS011;52203;51.998;5.140;2022-11-25T02:58:12;9.32;;;2.80;;
65558;SDS011;52203;51.998;5.140;2022-11-25T03:00:40;11.07;;;2.90;;
65558;SDS011;52203;51.998;5.140;2022-11-25T03:03:06;8.77;;;3.08;;
65558;SDS011;52203;51.998;5.140;2022-11-25T03:05:32;8.75;;;3.92;;
65558;SDS011;52203;51.998;5.140;2022-11-25T03:07:58;8.65;;;3.03;;
65558;SDS011;52203;51.998;5.140;2022-11-25T03:10:23;10.50;;;2.97;;
65558;SDS011;52203;51.998;5.140;2022-11-25T03:12:50;5.50;;;3.05;;
65558;SDS011;52203;51.998;5.140;2022-11-25T03:15:15;8.63;;;3.33;;
65558;SDS011;52203;51.998;5.140;2022-11-25T03:17:41;11.32;;;3.75;;
65558;SDS011;52203;51.998;5.140;2022-11-25T03:20:07;13.00;;;3.30;;
65558;SDS011;52203;51.998;5.140;2022-11-25T03:22:33;7.70;;;2.70;;
65558;SDS011;52203;51.998;5.140;2022-11-25T03:24:58;10.73;;;3.20;;
65558;SDS011;52203;51.998;5.140;2022-11-25T03:27:24;6.78;;;2.47;;
65558;SDS011;52203;51.998;5.140;2022-11-25T03:29:49;9.77;;;2.85;;
65558;SDS011;52203;51.998;5.140;2022-11-25T03:32:15;8.88;;;2.63;;
65558;SDS011;52203;51.998;5.140;2022-11-25T03:34:40;8.55;;;2.90;;
65558;SDS011;52203;51.998;5.140;2022-11-25T03:37:06;6.85;;;2.60;;
65558;SDS011;52203;51.998;5.140;2022-11-25T03:39:32;6.72;;;2.58;;
65558;SDS011;52203;51.998;5.140;2022-11-25T03:41:58;5.95;;;2.65;;
65558;SDS011;52203;51.998;5.140;2022-11-25T03:44:23;8.07;;;2.22;;
65558;SDS011;52203;51.998;5.140;2022-11-25T03:46:49;8.25;;;2.85;;
65558;SDS011;52203;51.998;5.140;2022-11-25T03:49:15;4.95;;;2.00;;
65558;SDS011;52203;51.998;5.140;2022-11-25T03:51:40;6.07;;;2.05;;
65558;SDS011;52203;51.998;5.140;2022-11-25T03:54:06;6.28;;;1.95;;
65558;SDS011;52203;51.998;5.140;2022-11-25T03:56:32;5.07;;;1.90;;
65558;SDS011;52203;51.998;5.140;2022-11-25T03:58:57;3.22;;;1.63;;
65558;SDS011;52203;51.998;5.140;2022-11-25T04:01:23;6.97;;;2.38;;
65558;SDS011;52203;51.998;5.140;2022-11-25T04:03:48;5.47;;;1.90;;
65558;SDS011;52203;51.998;5.140;2022-11-25T04:06:14;6.53;;;1.90;;
65558;SDS011;52203;51.998;5.140;2022-11-25T04:08:40;3.63;;;1.40;;
65558;SDS011;52203;51.998;5.140;2022-11-25T04:11:06;3.83;;;1.52;;
65558;SDS011;52203;51.998;5.140;2022-11-25T04:13:32;2.78;;;1.45;;
65558;SDS011;52203;51.998;5.140;2022-11-25T04:15:58;4.55;;;1.77;;
65558;SDS011;52203;51.998;5.140;2022-11-25T04:18:24;3.40;;;1.38;;
65558;SDS011;52203;51.998;5.140;2022-11-25T04:20:49;6.90;;;1.50;;
65558;SDS011;52203;51.998;5.140;2022-11-25T04:23:15;5.82;;;1.65;;
65558;SDS011;52203;51.998;5.140;2022-11-25T04:25:41;6.30;;;1.48;;
65558;SDS011;52203;51.998;5.140;2022-11-25T04:28:07;7.28;;;1.52;;
65558;SDS011;52203;51.998;5.140;2022-11-25T04:30:32;4.25;;;1.50;;
65558;SDS011;52203;51.998;5.140;2022-11-25T04:32:58;2.55;;;1.35;;
65558;SDS011;52203;51.998;5.140;2022-11-25T04:35:24;3.67;;;1.48;;
65558;SDS011;52203;51.998;5.140;2022-11-25T04:37:49;3.25;;;1.50;;
65558;SDS011;52203;51.998;5.140;2022-11-25T04:40:15;3.97;;;1.50;;
65558;SDS011;52203;51.998;5.140;2022-11-25T04:42:40;5.75;;;1.60;;
65558;SDS011;52203;51.998;5.140;2022-11-25T04:45:07;2.65;;;1.20;;
65558;SDS011;52203;51.998;5.140;2022-11-25T04:47:34;3.28;;;1.42;;
65558;SDS011;52203;51.998;5.140;2022-11-25T04:50:00;3.35;;;1.40;;
65558;SDS011;52203;51.998;5.140;2022-11-25T04:52:26;6.32;;;1.50;;
65558;SDS011;52203;51.998;5.140;2022-11-25T04:54:52;4.03;;;1.40;;
65558;SDS011;52203;51.998;5.140;2022-11-25T04:57:17;4.32;;;1.35;;
65558;SDS011;52203;51.998;5.140;2022-11-25T04:59:43;4.50;;;1.50;;
65558;SDS011;52203;51.998;5.140;2022-11-25T05:02:11;2.75;;;1.85;;
65558;SDS011;52203;51.998;5.140;2022-11-25T05:04:41;4.72;;;1.38;;
65558;SDS011;52203;51.998;5.140;2022-11-25T05:07:08;8.10;;;2.58;;
65558;SDS011;52203;51.998;5.140;2022-11-25T05:09:34;4.78;;;1.23;;
65558;SDS011;52203;51.998;5.140;2022-11-25T05:12:00;2.55;;;1.40;;
65558;SDS011;52203;51.998;5.140;2022-11-25T05:14:25;5.00;;;1.33;;
65558;SDS011;52203;51.998;5.140;2022-11-25T05:16:51;5.65;;;1.40;;
65558;SDS011;52203;51.998;5.140;2022-11-25T05:19:17;4.40;;;1.33;;
65558;SDS011;52203;51.998;5.140;2022-11-25T05:21:42;4.30;;;1.30;;
65558;SDS011;52203;51.998;5.140;2022-11-25T05:24:08;2.83;;;1.00;;
65558;SDS011;52203;51.998;5.140;2022-11-25T05:26:34;4.13;;;1.30;;
65558;SDS011;52203;51.998;5.140;2022-11-25T05:28:59;1.73;;;1.00;;
65558;SDS011;52203;51.998;5.140;2022-11-25T05:31:25;7.25;;;1.35;;
65558;SDS011;52203;51.998;5.140;2022-11-25T05:33:50;3.60;;;1.20;;
65558;SDS011;52203;51.998;5.140;2022-11-25T05:36:16;1.90;;;1.00;;
65558;SDS011;52203;51.998;5.140;2022-11-25T05:38:41;5.05;;;1.20;;
65558;SDS011;52203;51.998;5.140;2022-11-25T05:41:07;4.35;;;1.60;;
65558;SDS011;52203;51.998;5.140;2022-11-25T05:43:35;3.15;;;1.45;;
65558;SDS011;52203;51.998;5.140;2022-11-25T05:46:07;2.50;;;1.20;;
65558;SDS011;52203;51.998;5.140;2022-11-25T05:48:33;2.60;;;1.30;;
65558;SDS011;52203;51.998;5.140;2022-11-25T05:50:59;5.18;;;1.20;;
65558;SDS011;52203;51.998;5.140;2022-11-25T05:53:28;4.13;;;1.48;;
65558;SDS011;52203;51.998;5.140;2022-11-25T05:55:54;3.95;;;1.70;;
65558;SDS011;52203;51.998;5.140;2022-11-25T05:58:23;2.28;;;1.20;;
65558;SDS011;52203;51.998;5.140;2022-11-25T06:00:49;3.50;;;1.52;;
65558;SDS011;52203;51.998;5.140;2022-11-25T06:03:14;4.10;;;1.65;;
65558;SDS011;52203;51.998;5.140;2022-11-25T06:05:40;3.80;;;1.20;;
65558;SDS011;52203;51.998;5.140;2022-11-25T06:08:06;4.45;;;1.33;;
65558;SDS011;52203;51.998;5.140;2022-11-25T06:10:32;3.35;;;1.40;;
65558;SDS011;52203;51.998;5.140;2022-11-25T06:12:57;2.78;;;1.15;;
65558;SDS011;52203;51.998;5.140;2022-11-25T06:15:23;2.53;;;1.60;;
65558;SDS011;52203;51.998;5.140;2022-11-25T06:17:49;4.70;;;1.52;;
65558;SDS011;52203;51.998;5.140;2022-11-25T06:20:14;3.78;;;1.40;;
65558;SDS011;52203;51.998;5.140;2022-11-25T06:22:40;3.95;;;1.55;;
65558;SDS011;52203;51.998;5.140;2022-11-25T06:25:06;2.33;;;1.20;;
65558;SDS011;52203;51.998;5.140;2022-11-25T06:27:31;3.25;;;1.50;;
65558;SDS011;52203;51.998;5.140;2022-11-25T06:29:57;4.90;;;1.90;;
65558;SDS011;52203;51.998;5.140;2022-11-25T06:32:23;4.85;;;1.77;;
65558;SDS011;52203;51.998;5.140;2022-11-25T06:34:48;4.85;;;1.77;;
65558;SDS011;52203;51.998;5.140;2022-11-25T06:37:14;3.78;;;1.70;;
65558;SDS011;52203;51.998;5.140;2022-11-25T06:39:40;4.43;;;2.40;;
65558;SDS011;52203;51.998;5.140;2022-11-25T06:42:05;9.00;;;1.88;;
65558;SDS011;52203;51.998;5.140;2022-11-25T06:44:31;4.22;;;1.55;;
65558;SDS011;52203;51.998;5.140;2022-11-25T06:46:56;5.00;;;1.55;;
65558;SDS011;52203;51.998;5.140;2022-11-25T06:49:22;5.75;;;2.20;;
65558;SDS011;52203;51.998;5.140;2022-11-25T06:51:50;4.95;;;1.88;;
65558;SDS011;52203;51.998;5.140;2022-11-25T06:54:16;5.88;;;2.25;;
65558;SDS011;52203;51.998;5.140;2022-11-25T06:56:41;6.20;;;2.15;;
65558;SDS011;52203;51.998;5.140;2022-11-25T06:59:07;6.90;;;2.50;;
65558;SDS011;52203;51.998;5.140;2022-11-25T07:01:32;5.20;;;2.08;;
65558;SDS011;52203;51.998;5.140;2022-11-25T07:03:59;7.68;;;2.75;;
65558;SDS011;52203;51.998;5.140;2022-11-25T07:06:27;6.80;;;2.25;;
65558;SDS011;52203;51.998;5.140;2022-11-25T07:08:53;6.80;;;2.33;;
65558;SDS011;52203;51.998;5.140;2022-11-25T07:11:20;6.13;;;2.40;;
65558;SDS011;52203;51.998;5.140;2022-11-25T07:13:51;5.32;;;2.28;;
65558;SDS011;52203;51.998;5.140;2022-11-25T07:16:18;8.07;;;2.63;;
65558;SDS011;52203;51.998;5.140;2022-11-25T07:18:43;8.77;;;2.55;;
65558;SDS011;52203;51.998;5.140;2022-11-25T07:21:11;5.05;;;2.08;;
65558;SDS011;52203;51.998;5.140;2022-11-25T07:23:38;6.35;;;2.40;;
65558;SDS011;52203;51.998;5.140;2022-11-25T07:26:11;6.80;;;2.40;;
65558;SDS011;52203;51.998;5.140;2022-11-25T07:28:39;9.45;;;3.00;;
65558;SDS011;52203;51.998;5.140;2022-11-25T07:33:32;6.30;;;2.40;;
65558;SDS011;52203;51.998;5.140;2022-11-25T07:36:04;6.80;;;2.60;;
65558;SDS011;52203;51.998;5.140;2022-11-25T07:38:32;7.00;;;2.95;;
65558;SDS011;52203;51.998;5.140;2022-11-25T07:43:34;7.47;;;2.55;;
65558;SDS011;52203;51.998;5.140;2022-11-25T07:46:18;9.07;;;2.92;;
65558;SDS011;52203;51.998;5.140;2022-11-25T07:51:15;8.43;;;2.90;;
65558;SDS011;52203;51.998;5.140;2022-11-25T07:53:42;6.22;;;2.58;;
65558;SDS011;52203;51.998;5.140;2022-11-25T07:56:08;5.30;;;2.60;;
65558;SDS011;52203;51.998;5.140;2022-11-25T07:58:33;7.72;;;3.22;;
65558;SDS011;52203;51.998;5.140;2022-11-25T08:01:02;9.02;;;3.00;;
65558;SDS011;52203;51.998;5.140;2022-11-25T08:03:33;6.03;;;2.45;;
65558;SDS011;52203;51.998;5.140;2022-11-25T08:06:02;9.80;;;2.90;;
65558;SDS011;52203;51.998;5.140;2022-11-25T08:08:29;10.30;;;3.17;;
65558;SDS011;52203;51.998;5.140;2022-11-25T08:10:54;7.53;;;3.40;;
65558;SDS011;52203;51.998;5.140;2022-11-25T08:13:20;6.38;;;2.85;;
65558;SDS011;52203;51.998;5.140;2022-11-25T08:15:46;7.32;;;2.97;;
65558;SDS011;52203;51.998;5.140;2022-11-25T08:18:11;8.35;;;3.20;;
65558;SDS011;52203;51.998;5.140;2022-11-25T08:20:37;5.78;;;3.00;;
65558;SDS011;52203;51.998;5.140;2022-11-25T08:23:02;5.97;;;2.47;;
65558;SDS011;52203;51.998;5.140;2022-11-25T08:25:28;5.18;;;2.67;;
65558;SDS011;52203;51.998;5.140;2022-11-25T08:27:59;4.80;;;2.75;;
65558;SDS011;52203;51.998;5.140;2022-11-25T08:30:25;8.35;;;3.03;;
65558;SDS011;52203;51.998;5.140;2022-11-25T08:32:51;5.75;;;3.15;;
65558;SDS011;52203;51.998;5.140;2022-11-25T08:35:18;5.68;;;3.00;;
65558;SDS011;52203;51.998;5.140;2022-11-25T08:37:44;4.95;;;2.28;;
65558;SDS011;52203;51.998;5.140;2022-11-25T08:40:10;9.05;;;2.85;;
65558;SDS011;52203;51.998;5.140;2022-11-25T08:42:36;6.35;;;2.42;;
65558;SDS011;52203;51.998;5.140;2022-11-25T08:45:03;7.85;;;2.90;;
65558;SDS011;52203;51.998;5.140;2022-11-25T08:47:29;5.15;;;2.63;;
65558;SDS011;52203;51.998;5.140;2022-11-25T08:49:55;7.20;;;3.10;;
65558;SDS011;52203;51.998;5.140;2022-11-25T08:52:21;6.13;;;2.50;;
65558;SDS011;52203;51.998;5.140;2022-11-25T08:54:47;6.28;;;2.97;;
65558;SDS011;52203;51.998;5.140;2022-11-25T08:57:13;8.05;;;3.10;;
65558;SDS011;52203;51.998;5.140;2022-11-25T08:59:38;5.43;;;2.60;;
65558;SDS011;52203;51.998;5.140;2022-11-25T09:02:04;8.05;;;3.33;;
65558;SDS011;52203;51.998;5.140;2022-11-25T09:04:34;11.13;;;3.47;;
65558;SDS011;52203;51.998;5.140;2022-11-25T09:07:00;5.65;;;3.20;;
65558;SDS011;52203;51.998;5.140;2022-11-25T09:09:27;9.23;;;2.90;;
65558;SDS011;52203;51.998;5.140;2022-11-25T09:11:53;5.47;;;3.00;;
65558;SDS011;52203;51.998;5.140;2022-11-25T09:14:18;6.82;;;3.28;;
65558;SDS011;52203;51.998;5.140;2022-11-25T09:16:44;6.25;;;3.25;;
65558;SDS011;52203;51.998;5.140;2022-11-25T09:19:09;9.60;;;4.05;;
65558;SDS011;52203;51.998;5.140;2022-11-25T09:21:35;8.38;;;3.88;;
65558;SDS011;52203;51.998;5.140;2022-11-25T09:24:00;7.22;;;3.70;;
65558;SDS011;52203;51.998;5.140;2022-11-25T09:26:30;8.90;;;3.05;;
65558;SDS011;52203;51.998;5.140;2022-11-25T09:28:59;10.43;;;3.22;;
65558;SDS011;52203;51.998;5.140;2022-11-25T09:31:25;8.65;;;3.58;;
65558;SDS011;52203;51.998;5.140;2022-11-25T09:33:50;11.45;;;3.63;;
65558;SDS011;52203;51.998;5.140;2022-11-25T09:36:16;8.30;;;2.85;;
65558;SDS011;52203;51.998;5.140;2022-11-25T09:38:43;9.65;;;2.88;;
65558;SDS011;52203;51.998;5.140;2022-11-25T09:41:13;7.55;;;2.80;;
65558;SDS011;52203;51.998;5.140;2022-11-25T09:44:20;8.77;;;2.90;;
65558;SDS011;52203;51.998;5.140;2022-11-25T09:47:45;11.63;;;3.28;;
65558;SDS011;52203;51.998;5.140;2022-11-25T09:54:03;9.57;;;3.08;;
65558;SDS011;52203;51.998;5.140;2022-11-25T10:00:12;10.15;;;3.38;;
65558;SDS011;52203;51.998;5.140;2022-11-25T10:05:28;12.60;;;4.10;;
65558;SDS011;52203;51.998;5.140;2022-11-25T10:13:56;10.07;;;3.55;;
65558;SDS011;52203;51.998;5.140;2022-11-25T10:22:41;9.00;;;3.42;;
65558;SDS011;52203;51.998;5.140;2022-11-25T10:28:20;12.05;;;3.00;;
65558;SDS011;52203;51.998;5.140;2022-11-25T10:33:34;11.30;;;3.97;;
65558;SDS011;52203;51.998;5.140;2022-11-25T10:36:19;12.10;;;3.85;;
65558;SDS011;52203;51.998;5.140;2022-11-25T11:07:32;12.98;;;3.60;;
65558;SDS011;52203;51.998;5.140;2022-11-25T11:10:23;9.60;;;3.77;;
65558;SDS011;52203;51.998;5.140;2022-11-25T11:12:54;11.10;;;3.08;;
65558;SDS011;52203;51.998;5.140;2022-11-25T11:15:32;14.32;;;3.50;;
65558;SDS011;52203;51.998;5.140;2022-11-25T11:20:55;8.93;;;3.58;;
65558;SDS011;52203;51.998;5.140;2022-11-25T11:23:23;12.00;;;4.07;;
65558;SDS011;52203;51.998;5.140;2022-11-25T11:25:57;11.13;;;2.78;;
65558;SDS011;52203;51.998;5.140;2022-11-25T11:28:55;11.10;;;3.25;;
65558;SDS011;52203;51.998;5.140;2022-11-25T11:31:24;10.85;;;2.85;;
65558;SDS011;52203;51.998;5.140;2022-11-25T11:37:07;11.63;;;3.50;;
65558;SDS011;52203;51.998;5.140;2022-11-25T11:40:11;11.65;;;2.65;;
65558;SDS011;52203;51.998;5.140;2022-11-25T11:54:07;10.37;;;2.50;;
65558;SDS011;52203;51.998;5.140;2022-11-25T11:56:48;8.68;;;2.25;;
65558;SDS011;52203;51.998;5.140;2022-11-25T12:10:21;8.82;;;2.15;;
65558;SDS011;52203;51.998;5.140;2022-11-25T12:18:03;8.20;;;2.38;;
65558;SDS011;52203;51.998;5.140;2022-11-25T12:20:54;7.60;;;1.73;;
65558;SDS011;52203;51.998;5.140;2022-11-25T12:26:16;10.10;;;2.75;;
65558;SDS011;52203;51.998;5.140;2022-11-25T12:28:50;6.18;;;2.30;;
65558;SDS011;52203;51.998;5.140;2022-11-25T12:31:23;14.80;;;3.22;;
65558;SDS011;52203;51.998;5.140;2022-11-25T12:33:56;14.30;;;2.05;;
65558;SDS011;52203;51.998;5.140;2022-11-25T12:36:39;10.43;;;2.42;;
65558;SDS011;52203;51.998;5.140;2022-11-25T12:42:16;14.73;;;2.13;;
65558;SDS011;52203;51.998;5.140;2022-11-25T12:45:08;9.82;;;2.00;;
65558;SDS011;52203;51.998;5.140;2022-11-25T12:47:39;7.75;;;1.88;;
65558;SDS011;52203;51.998;5.140;2022-11-25T12:50:04;11.05;;;2.58;;
65558;SDS011;52203;51.998;5.140;2022-11-25T12:52:36;5.97;;;2.10;;
65558;SDS011;52203;51.998;5.140;2022-11-25T13:00:46;9.75;;;2.97;;
65558;SDS011;52203;51.998;5.140;2022-11-25T13:11:54;10.18;;;2.20;;
65558;SDS011;52203;51.998;5.140;2022-11-25T13:17:22;13.07;;;2.38;;
65558;SDS011;52203;51.998;5.140;2022-11-25T13:19:48;12.65;;;2.10;;
65558;SDS011;52203;51.998;5.140;2022-11-25T13:22:23;8.85;;;2.08;;
65558;SDS011;52203;51.998;5.140;2022-11-25T13:24:53;6.63;;;2.40;;
65558;SDS011;52203;51.998;5.140;2022-11-25T13:27:57;9.73;;;2.45;;
65558;SDS011;52203;51.998;5.140;2022-11-25T13:32:56;11.15;;;2.38;;
65558;SDS011;52203;51.998;5.140;2022-11-25T13:35:35;10.38;;;2.35;;
65558;SDS011;52203;51.998;5.140;2022-11-25T13:38:34;10.95;;;2.42;;
65558;SDS011;52203;51.998;5.140;2022-11-25T13:43:48;13.55;;;2.58;;
65558;SDS011;52203;51.998;5.140;2022-11-25T13:46:38;14.05;;;2.50;;
65558;SDS011;52203;51.998;5.140;2022-11-25T13:54:52;6.53;;;2.30;;
65558;SDS011;52203;51.998;5.140;2022-11-25T13:57:23;9.73;;;2.28;;
65558;SDS011;52203;51.998;5.140;2022-11-25T13:59:55;12.32;;;2.53;;
65558;SDS011;52203;51.998;5.140;2022-11-25T14:24:20;11.68;;;3.40;;
65558;SDS011;52203;51.998;5.140;2022-11-25T14:26:53;6.50;;;2.20;;
65558;SDS011;52203;51.998;5.140;2022-11-25T14:29:27;8.25;;;2.28;;
65558;SDS011;52203;51.998;5.140;2022-11-25T14:31:54;10.25;;;2.33;;
65558;SDS011;52203;51.998;5.140;2022-11-25T14:40:09;11.02;;;3.17;;
65558;SDS011;52203;51.998;5.140;2022-11-25T14:42:38;10.57;;;2.50;;
65558;SDS011;52203;51.998;5.140;2022-11-25T14:45:21;13.65;;;2.53;;
65558;SDS011;52203;51.998;5.140;2022-11-25T14:47:51;14.57;;;2.63;;
65558;SDS011;52203;51.998;5.140;2022-11-25T14:50:17;11.32;;;2.20;;
65558;SDS011;52203;51.998;5.140;2022-11-25T14:52:42;9.80;;;2.63;;
65558;SDS011;52203;51.998;5.140;2022-11-25T14:55:12;9.45;;;2.63;;
65558;SDS011;52203;51.998;5.140;2022-11-25T14:57:47;11.15;;;2.72;;
65558;SDS011;52203;51.998;5.140;2022-11-25T15:00:13;9.20;;;2.58;;
65558;SDS011;52203;51.998;5.140;2022-11-25T15:02:50;13.02;;;2.50;;
65558;SDS011;52203;51.998;5.140;2022-11-25T15:05:23;16.98;;;3.22;;
65558;SDS011;52203;51.998;5.140;2022-11-25T15:10:50;9.13;;;2.15;;
65558;SDS011;52203;51.998;5.140;2022-11-25T15:16:11;7.10;;;2.30;;
65558;SDS011;52203;51.998;5.140;2022-11-25T15:18:45;12.07;;;2.13;;
65558;SDS011;52203;51.998;5.140;2022-11-25T15:21:12;14.00;;;3.08;;
65558;SDS011;52203;51.998;5.140;2022-11-25T15:23:39;9.43;;;2.65;;
65558;SDS011;52203;51.998;5.140;2022-11-25T15:26:14;6.95;;;2.22;;
65558;SDS011;52203;51.998;5.140;2022-11-25T15:28:44;10.45;;;2.35;;
65558;SDS011;52203;51.998;5.140;2022-11-25T15:31:14;17.85;;;2.92;;
65558;SDS011;52203;51.998;5.140;2022-11-25T15:33:42;8.52;;;2.65;;
65558;SDS011;52203;51.998;5.140;2022-11-25T15:36:08;8.32;;;2.42;;
65558;SDS011;52203;51.998;5.140;2022-11-25T15:41:01;14.05;;;3.17;;
65558;SDS011;52203;51.998;5.140;2022-11-25T15:43:28;12.30;;;2.25;;
65558;SDS011;52203;51.998;5.140;2022-11-25T15:45:57;13.25;;;2.58;;
65558;SDS011;52203;51.998;5.140;2022-11-25T15:48:26;9.05;;;2.78;;
65558;SDS011;52203;51.998;5.140;2022-11-25T15:51:29;13.80;;;3.90;;
65558;SDS011;52203;51.998;5.140;2022-11-25T15:54:21;16.17;;;3.95;;
65558;SDS011;52203;51.998;5.140;2022-11-25T15:56:55;9.77;;;2.45;;
65558;SDS011;52203;51.998;5.140;2022-11-25T15:59:40;13.80;;;3.17;;
65558;SDS011;52203;51.998;5.140;2022-11-25T16:05:15;15.35;;;2.50;;
65558;SDS011;52203;51.998;5.140;2022-11-25T16:10:23;9.30;;;2.75;;
65558;SDS011;52203;51.998;5.140;2022-11-25T16:18:11;10.32;;;2.38;;
65558;SDS011;52203;51.998;5.140;2022-11-25T16:20:44;12.52;;;3.13;;
65558;SDS011;52203;51.998;5.140;2022-11-25T16:23:14;8.88;;;2.55;;
65558;SDS011;52203;51.998;5.140;2022-11-25T16:25:48;10.10;;;2.88;;
65558;SDS011;52203;51.998;5.140;2022-11-25T16:28:20;9.95;;;2.65;;
65558;SDS011;52203;51.998;5.140;2022-11-25T16:30:46;9.57;;;2.63;;
65558;SDS011;52203;51.998;5.140;2022-11-25T16:33:12;9.38;;;2.55;;
65558;SDS011;52203;51.998;5.140;2022-11-25T16:35:38;10.82;;;2.50;;
65558;SDS011;52203;51.998;5.140;2022-11-25T16:38:03;12.38;;;3.05;;
65558;SDS011;52203;51.998;5.140;2022-11-25T16:40:29;16.85;;;3.30;;
65558;SDS011;52203;51.998;5.140;2022-11-25T16:42:54;10.32;;;2.40;;
65558;SDS011;52203;51.998;5.140;2022-11-25T16:45:21;12.73;;;3.38;;
65558;SDS011;52203;51.998;5.140;2022-11-25T16:47:48;7.70;;;2.60;;
65558;SDS011;52203;51.998;5.140;2022-11-25T16:50:14;6.85;;;2.38;;
65558;SDS011;52203;51.998;5.140;2022-11-25T16:52:41;8.00;;;2.92;;
65558;SDS011;52203;51.998;5.140;2022-11-25T16:55:07;12.07;;;2.95;;
65558;SDS011;52203;51.998;5.140;2022-11-25T16:57:33;9.20;;;2.60;;
65558;SDS011;52203;51.998;5.140;2022-11-25T17:00:00;10.90;;;2.70;;
65558;SDS011;52203;51.998;5.140;2022-11-25T17:02:32;7.20;;;2.70;;
65558;SDS011;52203;51.998;5.140;2022-11-25T17:05:20;14.07;;;2.95;;
65558;SDS011;52203;51.998;5.140;2022-11-25T17:07:47;16.88;;;2.60;;
65558;SDS011;52203;51.998;5.140;2022-11-25T17:10:16;8.75;;;2.53;;
65558;SDS011;52203;51.998;5.140;2022-11-25T17:12:43;13.60;;;3.45;;
65558;SDS011;52203;51.998;5.140;2022-11-25T17:15:14;10.90;;;2.78;;
65558;SDS011;52203;51.998;5.140;2022-11-25T17:17:42;15.73;;;2.78;;
65558;SDS011;52203;51.998;5.140;2022-11-25T17:20:18;9.68;;;2.47;;
65558;SDS011;52203;51.998;5.140;2022-11-25T17:22:48;11.05;;;2.20;;
65558;SDS011;52203;51.998;5.140;2022-11-25T17:25:15;9.35;;;2.35;;
65558;SDS011;52203;51.998;5.140;2022-11-25T17:27:40;9.45;;;2.47;;
65558;SDS011;52203;51.998;5.140;2022-11-25T17:30:11;10.25;;;3.00;;
65558;SDS011;52203;51.998;5.140;2022-11-25T17:32:44;11.80;;;2.55;;
65558;SDS011;52203;51.998;5.140;2022-11-25T17:35:17;10.27;;;2.65;;
65558;SDS011;52203;51.998;5.140;2022-11-25T17:37:44;12.43;;;3.03;;
65558;SDS011;52203;51.998;5.140;2022-11-25T17:40:11;12.40;;;2.92;;
65558;SDS011;52203;51.998;5.140;2022-11-25T17:42:37;12.40;;;3.80;;
65558;SDS011;52203;51.998;5.140;2022-11-25T17:45:08;12.13;;;3.22;;
65558;SDS011;52203;51.998;5.140;2022-11-25T17:47:38;7.63;;;2.78;;
65558;SDS011;52203;51.998;5.140;2022-11-25T17:50:11;10.45;;;2.75;;
65558;SDS011;52203;51.998;5.140;2022-11-25T17:52:40;10.13;;;3.25;;
65558;SDS011;52203;51.998;5.140;2022-11-25T17:55:06;11.27;;;3.42;;
65558;SDS011;52203;51.998;5.140;2022-11-25T17:57:32;11.77;;;3.38;;
65558;SDS011;52203;51.998;5.140;2022-11-25T17:59:58;12.93;;;3.20;;
65558;SDS011;52203;51.998;5.140;2022-11-25T18:02:24;10.95;;;3.58;;
65558;SDS011;52203;51.998;5.140;2022-11-25T18:04:50;10.35;;;3.35;;